createdAt,value
2022-09-03T00:00:21.711Z,100531.80
2022-09-03T00:03:14.023Z,100531.60
2022-09-03T00:06:00.728Z,100532.60
2022-09-03T00:08:58.104Z,100530.40
2022-09-03T00:11:32.385Z,100530.20
2022-09-03T00:14:07.949Z,100522.00
2022-09-03T00:16:54.350Z,100526.60
2022-09-03T00:19:39.445Z,100523.60
2022-09-03T00:22:18.096Z,100525.60
2022-09-03T00:24:50.282Z,100528.00
2022-09-03T00:27:24.988Z,100527.60
2022-09-03T00:30:08.829Z,100529.20
2022-09-03T00:32:47.245Z,100528.60
2022-09-03T00:35:36.921Z,100522.00
2022-09-03T00:38:04.116Z,100518.80
2022-09-03T00:41:03.874Z,100519.00
2022-09-03T00:44:01.365Z,100516.60
2022-09-03T00:46:47.228Z,100516.00
2022-09-03T00:49:48.986Z,100518.40
2022-09-03T00:52:47.680Z,100514.80
2022-09-03T00:55:34.841Z,100518.60
2022-09-03T00:58:44.038Z,100518.40
2022-09-03T01:01:46.446Z,100518.40
2022-09-03T01:04:27.914Z,100517.60
2022-09-03T01:07:23.332Z,100519.20
2022-09-03T01:10:32.371Z,100517.60
2022-09-03T01:13:14.824Z,100519.60
2022-09-03T01:16:06.409Z,100518.60
2022-09-03T01:18:57.911Z,100518.00
2022-09-03T01:22:22.009Z,100523.80
2022-09-03T01:24:58.843Z,100524.00
2022-09-03T01:27:46.799Z,100522.40
2022-09-03T01:30:24.318Z,100525.60
2022-09-03T01:33:15.305Z,100523.60
2022-09-03T01:35:54.657Z,100522.40
2022-09-03T01:38:42.046Z,100522.60
2022-09-03T01:41:51.398Z,100522.20
2022-09-03T01:44:30.232Z,100520.80
2022-09-03T01:47:11.190Z,100521.80
2022-09-03T01:50:13.000Z,100523.60
2022-09-03T01:52:59.303Z,100517.60
2022-09-03T01:55:37.099Z,100517.40
2022-09-03T01:58:41.015Z,100517.40
2022-09-03T02:01:23.849Z,100514.20
2022-09-03T02:03:51.707Z,100514.20
2022-09-03T02:06:20.788Z,100515.60
2022-09-03T02:08:47.942Z,100509.60
2022-09-03T02:11:14.777Z,100511.20
2022-09-03T02:13:48.697Z,100511.00
2022-09-03T02:16:21.582Z,100508.00
2022-09-03T02:19:13.000Z,100510.80
2022-09-03T02:21:54.481Z,100510.00
2022-09-03T02:24:21.704Z,100509.00
2022-09-03T02:26:48.496Z,100509.60
2022-09-03T02:29:17.476Z,100513.80
2022-09-03T02:31:45.282Z,100509.20
2022-09-03T02:34:12.695Z,100510.00
2022-09-03T02:36:48.164Z,100510.20
2022-09-03T02:39:17.197Z,100507.20
2022-09-03T02:41:44.854Z,100506.40
2022-09-03T02:44:26.015Z,100509.40
2022-09-03T02:47:03.072Z,100506.20
2022-09-03T02:49:31.344Z,100508.00
2022-09-03T02:52:06.451Z,100501.40
2022-09-03T02:54:36.493Z,100498.00
2022-09-03T02:57:03.621Z,100496.40
2022-09-03T02:59:30.499Z,100498.20
2022-09-03T03:01:57.352Z,100491.00
2022-09-03T03:04:30.578Z,100496.40
2022-09-03T03:06:57.755Z,100498.00
2022-09-03T03:09:24.586Z,100501.00
2022-09-03T03:11:52.217Z,100497.80
2022-09-03T03:14:19.085Z,100496.80
2022-09-03T03:16:45.905Z,100495.80
2022-09-03T03:19:12.677Z,100496.80
2022-09-03T03:21:40.346Z,100495.40
2022-09-03T03:24:08.410Z,100495.60
2022-09-03T03:26:35.665Z,100497.00
2022-09-03T03:29:07.322Z,100491.40
2022-09-03T03:31:34.760Z,100489.40
2022-09-03T03:34:03.551Z,100490.80
2022-09-03T03:36:33.560Z,100487.40
2022-09-03T03:39:01.597Z,100489.20
2022-09-03T03:41:34.656Z,100487.40
2022-09-03T03:44:05.371Z,100489.60
2022-09-03T03:46:36.711Z,100487.00
2022-09-03T03:49:06.438Z,100480.60
2022-09-03T03:51:35.019Z,100483.00
2022-09-03T03:54:05.016Z,100481.40
2022-09-03T03:56:34.743Z,100485.40
2022-09-03T03:59:01.981Z,100476.80
2022-09-03T04:01:29.768Z,100480.40
2022-09-03T04:03:59.993Z,100472.80
2022-09-03T04:06:27.153Z,100476.20
2022-09-03T04:08:53.996Z,100475.40
2022-09-03T04:11:24.121Z,100476.40
2022-09-03T04:13:52.232Z,100468.60
2022-09-03T04:16:28.377Z,100474.60
2022-09-03T04:18:57.292Z,100468.20
2022-09-03T04:21:30.197Z,100469.60
2022-09-03T04:23:58.613Z,100470.60
2022-09-03T04:26:31.999Z,100467.60
2022-09-03T04:29:10.422Z,100462.40
2022-09-03T04:31:40.068Z,100460.20
2022-09-03T04:34:07.004Z,100459.20
2022-09-03T04:36:35.135Z,100457.80
2022-09-03T04:39:02.440Z,100457.80
2022-09-03T04:41:32.025Z,100457.60
2022-09-03T04:44:00.101Z,100459.40
2022-09-03T04:46:33.250Z,100457.60
2022-09-03T04:49:00.858Z,100463.00
2022-09-03T04:51:30.216Z,100458.80
2022-09-03T04:54:01.712Z,100460.60
2022-09-03T04:56:32.242Z,100461.20
2022-09-03T04:59:02.787Z,100464.80
2022-09-03T05:01:32.540Z,100463.60
2022-09-03T05:04:01.074Z,100460.40
2022-09-03T05:06:31.591Z,100463.20
2022-09-03T05:09:00.065Z,100465.80
2022-09-03T05:11:29.377Z,100468.20
2022-09-03T05:13:59.980Z,100465.40
2022-09-03T05:16:30.237Z,100467.20
2022-09-03T05:19:00.931Z,100465.40
2022-09-03T05:21:29.999Z,100467.60
2022-09-03T05:23:58.021Z,100469.80
2022-09-03T05:26:28.783Z,100465.60
2022-09-03T05:28:59.863Z,100464.40
2022-09-03T05:31:31.630Z,100463.00
2022-09-03T05:34:02.660Z,100457.40
2022-09-03T05:36:36.637Z,100457.40
2022-09-03T05:39:05.879Z,100456.40
2022-09-03T05:41:34.206Z,100458.80
2022-09-03T05:44:01.511Z,100450.60
2022-09-03T05:46:32.641Z,100452.80
2022-09-03T05:49:02.142Z,100461.00
2022-09-03T05:51:30.790Z,100466.20
2022-09-03T05:53:58.578Z,100468.20
2022-09-03T05:56:28.530Z,100461.00
2022-09-03T05:59:01.780Z,100469.60
2022-09-03T06:01:36.016Z,100470.40
2022-09-03T06:04:05.845Z,100467.40
2022-09-03T06:06:36.557Z,100467.20
2022-09-03T06:09:13.944Z,100470.00
2022-09-03T06:11:42.824Z,100472.00
2022-09-03T06:14:14.378Z,100469.20
2022-09-03T06:16:44.907Z,100468.20
2022-09-03T06:19:14.009Z,100471.80
2022-09-03T06:21:44.421Z,100471.20
2022-09-03T06:24:20.517Z,100469.00
2022-09-03T06:26:48.125Z,100474.80
2022-09-03T06:29:15.579Z,100473.00
2022-09-03T06:31:42.969Z,100470.40
2022-09-03T06:34:09.811Z,100474.00
2022-09-03T06:36:36.615Z,100478.60
2022-09-03T06:39:03.986Z,100474.00
2022-09-03T06:41:35.061Z,100472.00
2022-09-03T06:44:05.711Z,100475.20
2022-09-03T06:46:35.756Z,100473.20
2022-09-03T06:49:03.585Z,100473.60
2022-09-03T06:51:33.633Z,100476.60
2022-09-03T06:54:08.749Z,100471.80
2022-09-03T06:56:40.586Z,100469.00
2022-09-03T06:59:14.686Z,100473.40
2022-09-03T07:01:46.233Z,100472.40
2022-09-03T07:04:20.326Z,100472.40
2022-09-03T07:06:47.829Z,100472.60
2022-09-03T07:09:15.949Z,100473.40
2022-09-03T07:11:49.754Z,100476.20
2022-09-03T07:14:19.725Z,100484.80
2022-09-03T07:16:49.005Z,100479.40
2022-09-03T07:19:18.218Z,100481.20
2022-09-03T07:21:50.190Z,100482.80
2022-09-03T07:24:22.525Z,100488.00
2022-09-03T07:26:49.849Z,100485.80
2022-09-03T07:29:21.100Z,100480.40
2022-09-03T07:31:52.552Z,100478.00
2022-09-03T07:34:22.179Z,100478.60
2022-09-03T07:36:53.817Z,100472.40
2022-09-03T07:39:20.687Z,100472.20
2022-09-03T07:41:48.036Z,100473.20
2022-09-03T07:44:22.830Z,100475.00
2022-09-03T07:46:51.435Z,100481.80
2022-09-03T07:49:21.149Z,100480.00
2022-09-03T07:51:50.832Z,100479.80
2022-09-03T07:54:18.094Z,100481.60
2022-09-03T07:56:44.878Z,100486.20
2022-09-03T07:59:12.198Z,100485.00
2022-09-03T08:01:41.556Z,100481.40
2022-09-03T08:04:09.990Z,100482.20
2022-09-03T08:06:38.933Z,100485.00
2022-09-03T08:09:14.147Z,100484.80
2022-09-03T08:11:43.796Z,100484.20
2022-09-03T08:14:13.720Z,100484.80
2022-09-03T08:16:47.407Z,100487.20
2022-09-03T08:19:15.045Z,100487.60
2022-09-03T08:21:42.545Z,100484.20
2022-09-03T08:24:11.732Z,100489.80
2022-09-03T08:26:45.240Z,100487.60
2022-09-03T08:29:17.865Z,100481.00
2022-09-03T08:31:44.787Z,100485.20
2022-09-03T08:34:13.194Z,100480.60
2022-09-03T08:36:44.474Z,100484.40
2022-09-03T08:39:11.824Z,100486.80
2022-09-03T08:41:51.006Z,100489.00
2022-09-03T08:44:58.751Z,100494.60
2022-09-03T08:47:45.945Z,100490.40
2022-09-03T08:50:31.844Z,100489.40
2022-09-03T08:53:20.307Z,100489.00
2022-09-03T08:56:09.668Z,100490.40
2022-09-03T08:58:38.689Z,100493.80
2022-09-03T09:01:24.555Z,100494.60
2022-09-03T09:04:22.579Z,100491.20
2022-09-03T09:07:21.465Z,100491.20
2022-09-03T09:10:20.248Z,100491.80
2022-09-03T09:13:17.370Z,100483.40
2022-09-03T09:16:22.042Z,100491.80
2022-09-03T09:19:11.539Z,100490.40
2022-09-03T09:21:53.170Z,100487.20
2022-09-03T09:24:26.829Z,100485.40
2022-09-03T09:27:00.023Z,100485.60
2022-09-03T09:29:35.956Z,100478.00
2022-09-03T09:32:05.112Z,100480.00
2022-09-03T09:34:37.829Z,100481.00
2022-09-03T09:37:13.940Z,100476.60
2022-09-03T09:40:00.747Z,100469.60
2022-09-03T09:42:30.037Z,100464.20
2022-09-03T09:44:56.926Z,100465.60
2022-09-03T09:47:37.239Z,100463.20
2022-09-03T09:50:24.778Z,100461.00
2022-09-03T09:53:14.985Z,100464.80
2022-09-03T09:55:54.418Z,100462.20
2022-09-03T09:58:25.867Z,100467.60
2022-09-03T10:01:03.477Z,100459.60
2022-09-03T10:03:37.944Z,100460.80
2022-09-03T10:06:47.942Z,100458.80
2022-09-03T10:09:23.427Z,100462.60
2022-09-03T10:12:28.740Z,100468.80
2022-09-03T10:15:43.037Z,100463.20
2022-09-03T10:18:30.289Z,100467.80
2022-09-03T10:21:24.813Z,100467.20
2022-09-03T10:24:32.240Z,100463.80
2022-09-03T10:26:59.298Z,100469.40
2022-09-03T10:29:30.284Z,100465.80
2022-09-03T10:32:37.866Z,100463.40
2022-09-03T10:35:29.089Z,100463.80
2022-09-03T10:38:17.665Z,100458.20
2022-09-03T10:40:56.863Z,100457.60
2022-09-03T10:44:15.396Z,100461.20
2022-09-03T10:47:19.721Z,100461.00
2022-09-03T10:50:01.778Z,100459.20
2022-09-03T10:52:41.199Z,100458.00
2022-09-03T10:55:24.142Z,100451.60
2022-09-03T10:58:19.489Z,100458.00
2022-09-03T11:00:58.235Z,100454.40
2022-09-03T11:03:55.121Z,100456.60
2022-09-03T11:06:29.230Z,100455.40
2022-09-03T11:09:06.710Z,100455.80
2022-09-03T11:11:42.767Z,100455.40
2022-09-03T11:14:16.045Z,100452.20
2022-09-03T11:16:50.101Z,100456.00
2022-09-03T11:19:21.877Z,100461.00
2022-09-03T11:21:49.658Z,100460.20
2022-09-03T11:24:27.000Z,100461.40
2022-09-03T11:27:07.560Z,100456.40
2022-09-03T11:29:51.508Z,100455.40
2022-09-03T11:32:55.536Z,100453.40
2022-09-03T11:35:34.126Z,100452.40
2022-09-03T11:38:05.503Z,100447.40
2022-09-03T11:40:36.373Z,100447.60
2022-09-03T11:43:35.839Z,100449.00
2022-09-03T11:46:23.333Z,100447.80
2022-09-03T11:48:55.466Z,100445.80
2022-09-03T11:51:37.650Z,100448.40
2022-09-03T11:54:20.963Z,100450.40
2022-09-03T11:56:49.730Z,100447.60
2022-09-03T11:59:25.160Z,100446.00
2022-09-03T12:02:34.437Z,100446.20
2022-09-03T12:05:25.850Z,100442.60
2022-09-03T12:08:54.013Z,100444.20
2022-09-03T12:12:09.302Z,100441.40
2022-09-03T12:14:57.337Z,100442.60
2022-09-03T12:18:12.340Z,100438.20
2022-09-03T12:20:43.088Z,100443.20
2022-09-03T12:23:25.787Z,100442.60
2022-09-03T12:25:53.251Z,100444.20
2022-09-03T12:28:24.925Z,100445.20
2022-09-03T12:30:53.938Z,100442.40
2022-09-03T12:33:23.391Z,100437.60
2022-09-03T12:36:02.046Z,100438.40
2022-09-03T12:38:40.664Z,100437.80
2022-09-03T12:41:31.372Z,100436.20
2022-09-03T12:44:00.700Z,100438.60
2022-09-03T12:46:33.672Z,100436.00
2022-09-03T12:52:26.934Z,100440.00
2022-09-03T12:55:33.897Z,100437.40
2022-09-03T12:58:21.926Z,100437.80
2022-09-03T13:01:21.098Z,100431.60
2022-09-03T13:03:59.809Z,100433.80
2022-09-03T13:06:49.997Z,100442.80
2022-09-03T13:09:23.974Z,100446.60
2022-09-03T13:11:52.514Z,100444.60
2022-09-03T13:14:20.098Z,100438.40
2022-09-03T13:16:46.808Z,100438.20
2022-09-03T13:19:50.964Z,100439.00
2022-09-03T13:22:35.839Z,100439.00
2022-09-03T13:25:21.571Z,100434.60
2022-09-03T13:28:27.629Z,100433.20
2022-09-03T13:31:06.647Z,100434.80
2022-09-03T13:33:43.652Z,100434.40
2022-09-03T13:36:26.676Z,100434.60
2022-09-03T13:39:16.706Z,100433.40
2022-09-03T13:41:54.245Z,100433.80
2022-09-03T13:44:52.282Z,100429.80
2022-09-03T13:48:04.509Z,100426.80
2022-09-03T13:51:03.982Z,100427.60
2022-09-03T13:54:00.017Z,100420.00
2022-09-03T13:57:05.079Z,100423.80
2022-09-03T13:59:47.950Z,100422.80
2022-09-03T14:02:29.241Z,100428.20
2022-09-03T14:05:08.757Z,100426.80
2022-09-03T14:08:08.045Z,100430.60
2022-09-03T14:11:22.822Z,100426.00
2022-09-03T14:14:52.840Z,100434.40
2022-09-03T14:17:47.193Z,100435.40
2022-09-03T14:20:24.168Z,100439.00
2022-09-03T14:22:57.866Z,100441.60
2022-09-03T14:25:27.612Z,100447.20
2022-09-03T14:28:38.076Z,100448.40
2022-09-03T14:31:36.640Z,100445.60
2022-09-03T14:34:37.175Z,100441.80
2022-09-03T14:37:34.492Z,100436.60
2022-09-03T14:40:19.378Z,100436.60
2022-09-03T14:43:17.945Z,100440.20
2022-09-03T14:45:56.731Z,100428.20
2022-09-03T14:48:50.632Z,100436.80
2022-09-03T14:51:38.600Z,100439.60
2022-09-03T14:54:27.033Z,100447.20
2022-09-03T14:57:09.561Z,100443.40
2022-09-03T14:59:57.309Z,100440.40
2022-09-03T15:02:52.124Z,100441.80
2022-09-03T15:05:51.839Z,100434.60
2022-09-03T15:08:45.630Z,100441.60
2022-09-03T15:11:27.169Z,100445.00
2022-09-03T15:14:29.844Z,100446.40
2022-09-03T15:17:14.104Z,100448.40
2022-09-03T15:20:06.436Z,100408.40
2022-09-03T15:22:54.216Z,100409.40
2022-09-03T15:26:21.030Z,100422.80
2022-09-03T15:28:59.813Z,100450.20
2022-09-03T15:31:42.252Z,100450.60
2022-09-03T15:34:23.842Z,100446.40
2022-09-03T15:36:54.483Z,100448.40
2022-09-03T15:39:34.126Z,100435.80
2022-09-03T15:42:14.686Z,100411.80
2022-09-03T15:44:55.322Z,100408.00
2022-09-03T15:47:50.554Z,100407.20
2022-09-03T15:50:38.379Z,100411.80
2022-09-03T15:53:27.320Z,100417.60
2022-09-03T15:56:11.662Z,100457.60
2022-09-03T15:59:07.081Z,100454.00
2022-09-03T16:02:22.022Z,100461.60
2022-09-03T16:05:16.945Z,100460.00
2022-09-03T16:08:22.292Z,100437.40
2022-09-03T16:11:30.662Z,100441.20
2022-09-03T16:14:23.335Z,100460.40
2022-09-03T16:17:14.096Z,100466.80
2022-09-03T16:19:55.263Z,100471.40
2022-09-03T16:22:38.827Z,100474.00
2022-09-03T16:25:25.905Z,100476.00
2022-09-03T16:28:11.531Z,100478.20
2022-09-03T16:30:40.940Z,100475.20
2022-09-03T16:33:29.458Z,100477.80
2022-09-03T16:36:11.485Z,100475.60
2022-09-03T16:38:47.521Z,100475.00
2022-09-03T16:41:47.908Z,100476.00
2022-09-03T16:44:38.751Z,100474.20
2022-09-03T16:47:22.322Z,100443.00
2022-09-03T16:50:27.791Z,100446.20
2022-09-03T16:53:21.931Z,100481.80
2022-09-03T16:56:34.269Z,100481.60
2022-09-03T16:59:10.665Z,100483.80
2022-09-03T17:01:52.426Z,100478.40
2022-09-03T17:04:41.434Z,100478.20
2022-09-03T17:07:20.626Z,100480.00
2022-09-03T17:10:31.473Z,100478.80
2022-09-03T17:13:13.964Z,100483.40
2022-09-03T17:16:01.388Z,100483.60
2022-09-03T17:18:49.840Z,100482.20
2022-09-03T17:21:16.484Z,100488.60
2022-09-03T17:24:16.386Z,100489.40
2022-09-03T17:27:04.255Z,100495.80
2022-09-03T17:30:04.521Z,100493.80
2022-09-03T17:33:01.941Z,100493.20
2022-09-03T17:35:47.635Z,100491.40
2022-09-03T17:38:24.076Z,100492.60
2022-09-03T17:41:09.208Z,100495.60
2022-09-03T17:43:59.119Z,100497.60
2022-09-03T17:46:55.329Z,100497.00
2022-09-03T17:49:32.751Z,100504.60
2022-09-03T17:52:20.284Z,100504.60
2022-09-03T17:54:58.220Z,100510.80
2022-09-03T17:57:44.066Z,100511.80
2022-09-03T18:00:42.705Z,100515.80
2022-09-03T18:03:35.889Z,100525.60
2022-09-03T18:06:12.958Z,100528.80
2022-09-03T18:09:07.681Z,100533.40
2022-09-03T18:11:54.748Z,100535.40
2022-09-03T18:14:28.743Z,100536.80
2022-09-03T18:17:04.258Z,100537.20
2022-09-03T18:20:08.576Z,100537.80
2022-09-03T18:23:11.874Z,100540.60
2022-09-03T18:26:03.986Z,100544.60
2022-09-03T18:29:25.308Z,100550.60
2022-09-03T18:32:10.515Z,100554.40
2022-09-03T18:34:56.393Z,100560.40
2022-09-03T18:37:45.744Z,100561.80
2022-09-03T18:40:52.146Z,100562.80
2022-09-03T18:44:00.107Z,100567.20
2022-09-03T18:48:02.050Z,100574.40
2022-09-03T18:50:36.083Z,100578.80
2022-09-03T18:53:29.027Z,100578.40
2022-09-03T18:56:18.144Z,100576.20
2022-09-03T18:59:44.693Z,100581.40
2022-09-03T19:02:59.813Z,100584.60
2022-09-03T19:06:23.964Z,100588.60
2022-09-03T19:09:18.223Z,100590.00
2022-09-03T19:12:25.929Z,100593.40
2022-09-03T19:15:23.651Z,100598.60
2022-09-03T19:18:48.144Z,100602.20
2022-09-03T19:22:00.237Z,100605.00
2022-09-03T19:24:49.871Z,100606.20
2022-09-03T19:27:55.658Z,100606.40
2022-09-03T19:31:38.443Z,100608.00
2022-09-03T19:34:42.541Z,100614.20
2022-09-03T19:37:56.015Z,100612.00
2022-09-03T19:41:12.313Z,100614.40
2022-09-03T19:44:29.564Z,100625.20
2022-09-03T19:47:19.719Z,100626.80
2022-09-03T19:50:23.697Z,100628.00
2022-09-03T19:53:18.229Z,100640.20
2022-09-03T19:56:12.218Z,100641.40
2022-09-03T19:59:08.332Z,100646.00
2022-09-03T20:01:56.915Z,100656.40
2022-09-03T20:04:51.780Z,100656.20
2022-09-03T20:07:39.525Z,100660.00
2022-09-03T20:10:24.471Z,100662.40
2022-09-03T20:13:19.330Z,100659.60
2022-09-03T20:16:16.548Z,100662.40
2022-09-03T20:18:55.205Z,100664.60
2022-09-03T20:21:43.891Z,100664.20
2022-09-03T20:24:45.851Z,100661.60
2022-09-03T20:27:37.486Z,100664.80
2022-09-03T20:30:07.893Z,100669.80
2022-09-03T20:32:55.933Z,100671.60
2022-09-03T20:35:53.943Z,100671.20
2022-09-03T20:39:00.333Z,100676.20
2022-09-03T20:41:35.951Z,100676.40
2022-09-03T20:44:24.301Z,100681.00
2022-09-03T20:47:30.860Z,100679.60
2022-09-03T20:50:25.271Z,100676.20
2022-09-03T20:53:11.218Z,100675.40
2022-09-03T20:55:40.594Z,100683.80
2022-09-03T20:58:13.082Z,100683.60
2022-09-03T21:00:52.612Z,100686.20
2022-09-03T21:03:51.177Z,100685.80
2022-09-03T21:06:46.432Z,100691.40
2022-09-03T21:09:36.030Z,100690.40
2022-09-03T21:12:29.477Z,100692.20
2022-09-03T21:15:26.225Z,100693.80
2022-09-03T21:18:28.733Z,100691.00
2022-09-03T21:21:13.216Z,100693.20
2022-09-03T21:23:48.076Z,100694.80
2022-09-03T21:26:31.083Z,100696.80
2022-09-03T21:29:11.822Z,100693.80
2022-09-03T21:32:16.766Z,100693.40
2022-09-03T21:34:55.590Z,100695.40
2022-09-03T21:37:24.429Z,100696.40
2022-09-03T21:39:56.637Z,100693.20
2022-09-03T21:42:43.544Z,100699.00
2022-09-03T21:45:34.163Z,100698.80
2022-09-03T21:48:12.212Z,100701.00
2022-09-03T21:50:53.016Z,100697.20
2022-09-03T21:53:38.843Z,100697.60
2022-09-03T21:56:39.087Z,100698.40
2022-09-03T21:59:29.584Z,100691.20
2022-09-03T22:02:22.091Z,100694.20
2022-09-03T22:04:50.672Z,100694.60
2022-09-03T22:07:38.276Z,100697.60
2022-09-03T22:10:32.731Z,100702.20
2022-09-03T22:13:24.866Z,100707.80
2022-09-03T22:16:01.515Z,100709.00
2022-09-03T22:18:32.431Z,100713.80
2022-09-03T22:21:23.338Z,100713.60
2022-09-03T22:23:55.771Z,100709.80
2022-09-03T22:26:45.776Z,100707.80
2022-09-03T22:29:29.094Z,100711.20
2022-09-03T22:32:50.666Z,100714.60
2022-09-03T22:35:35.800Z,100716.80
2022-09-03T22:38:28.919Z,100713.80
2022-09-03T22:41:30.553Z,100711.80
2022-09-03T22:44:37.265Z,100707.80
2022-09-03T22:47:33.927Z,100710.60
2022-09-03T22:50:53.396Z,100714.40
2022-09-03T22:53:53.924Z,100722.60
2022-09-03T22:56:22.521Z,100720.00
2022-09-03T22:59:03.422Z,100718.80
2022-09-03T23:01:53.138Z,100722.40
2022-09-03T23:04:36.893Z,100720.20
2022-09-03T23:07:18.934Z,100729.00
2022-09-03T23:10:02.809Z,100727.40
2022-09-03T23:12:48.362Z,100725.80
2022-09-03T23:15:30.348Z,100725.20
2022-09-03T23:18:15.344Z,100731.00
2022-09-03T23:20:55.287Z,100734.00
2022-09-03T23:24:00.088Z,100733.80
2022-09-03T23:26:44.175Z,100736.60
2022-09-03T23:29:35.727Z,100741.20
2022-09-03T23:32:05.244Z,100738.00
2022-09-03T23:34:33.383Z,100737.80
2022-09-03T23:37:56.390Z,100739.20
2022-09-03T23:40:48.413Z,100741.60
2022-09-03T23:44:18.643Z,100746.20
2022-09-03T23:47:20.970Z,100750.40
2022-09-03T23:50:10.175Z,100747.60
2022-09-03T23:53:32.260Z,100749.20
2022-09-03T23:56:36.633Z,100750.20
2022-09-03T23:59:19.851Z,100748.80
